• Join FlightAware (Why Join?)
  • Login
  • US Flag 
12:59AM EDT


 

Airport Tracker/Info


-or-


 

Live Flight TrackerFlight Track Log ✈ WEW1540 ✈ 30-Apr-2013 ✈ CYKY - CYYN

Flight Track Log - Related Links

Times and Time Zones

All times are in EDT time to prevent confusion due to time zone crossing. See the WEW1540 flight status page for this flight to view local times or setup timezone preferences in your user account.

Time Position Orientation Groundspeed Altitude Reporting Facility
EDT Latitude Longitude Course Direction KTS MPH feet Rate Location/Type
07:19PM 51.2598 -108.8589 142° Southeast  Level Estimated
07:20PM 51.2218 -108.8115 142° Southeast  Level FlightAware Approximate
07:21PM 51.1838 -108.7642 142° Southeast  Level FlightAware Approximate
07:22PM 51.1457 -108.7170 142° Southeast  Level FlightAware Approximate
07:23PM 51.1077 -108.6698 142° Southeast  Level FlightAware Approximate
07:24PM 51.0696 -108.6227 142° Southeast  Level FlightAware Approximate
07:25PM 51.0315 -108.5757 142° Southeast  Level FlightAware Approximate
07:26PM 50.9934 -108.5287 142° Southeast  Level FlightAware Approximate
07:27PM 50.9553 -108.4819 142° Southeast  Level FlightAware Approximate
07:28PM 50.9171 -108.4351 142° Southeast  Level FlightAware Approximate
07:29PM 50.8789 -108.3884 142° Southeast  Level FlightAware Approximate
07:30PM 50.8408 -108.3417 142° Southeast  Level FlightAware Approximate
07:31PM 50.8026 -108.2952 142° Southeast  Level FlightAware Approximate
07:32PM 50.7643 -108.2487 142° Southeast  Level FlightAware Approximate
07:33PM 50.7261 -108.2023 142° Southeast  Level FlightAware Approximate
07:34PM 50.6878 -108.1560 143° Southeast  Level FlightAware Approximate
07:35PM 50.6495 -108.1097 143° Southeast  Level FlightAware Approximate
07:36PM 50.6110 -108.0641 143° Southeast  Level Estimated
07:37PM 50.5725 -108.0182 143° Southeast  Level FlightAware Approximate
07:38PM 50.5341 -107.9725 143° Southeast  Level FlightAware Approximate
07:39PM 50.4956 -107.9268 143° Southeast  Level FlightAware Approximate
07:40PM 50.4571 -107.8811 143° Southeast  Level FlightAware Approximate
07:41PM 50.4183 -107.8362 144° Southeast  Level Estimated
07:42PM 50.3792 -107.7919 144° Southeast  Level FlightAware Approximate
07:43PM 50.3402 -107.7476 144° Southeast  Level FlightAware Approximate
07:44PM 50.3011 -107.7034 144° Southeast  Level FlightAware Approximate
07:45PM 50.2919 -107.6906 144° Southeast  Level Estimated
07:46PM 50.2919 -107.6906 144° Southeast  Level Estimated
07:47PM 50.2919 -107.6906 144° Southeast  Level Estimated
07:48PM 50.2919 -107.6906 144° Southeast  Level Estimated
07:49PM 50.2919 -107.6906 144° Southeast  Level Estimated
07:50PM 50.2919 -107.6906 144° Southeast  Level Estimated
07:51PM 50.2919 -107.6906 144° Southeast  Level Estimated
07:52PM 50.2919 -107.6906 144° Southeast  Level Estimated
07:53PM 50.2919 -107.6906 144° Southeast  Level Estimated
07:54PM 50.2919 -107.6906 144° Southeast  Level Estimated
07:55PM 50.2919 -107.6906 144° Southeast  Level Estimated
07:56PM 50.2919 -107.6906 144° Southeast  Level Estimated
07:57PM 50.2919 -107.6906 144° Southeast  Level Estimated
07:58PM 50.2919 -107.6906 144° Southeast  Level Estimated
07:59PM 50.2919 -107.6906 144° Southeast  Level Estimated